Time;durP1;ratioP1;P1;durP2;ratioP2;P2;SDS_P1;SDS_P2;PMS_P1;PMS_P2;Temp;Humidity;BMP_temperature;BMP_pressure;BME280_temperature;BME280_humidity;BME280_pressure;Samples;Min_cycle;Max_cycle;Signal;HPM_P1;HPM_P2
2023/08/21 00:00:08;;;;;;;8.15;7.17;;;;;;;25.24;55.33;100353.77;1742889;82;21550;-61
2023/08/21 00:02:40;;;;;;;8.78;6.58;;;;;;;25.25;55.30;100353.20;1742923;82;21024;-61
2023/08/21 00:05:09;;;;;;;9.58;7.15;;;;;;;25.23;55.44;100351.26;1742755;82;21031;-61
2023/08/21 00:07:39;;;;;;;9.98;7.03;;;;;;;25.20;55.59;100351.28;1742882;82;21037;-61
2023/08/21 00:10:09;;;;;;;7.72;6.92;;;;;;;25.17;55.77;100358.05;1742889;82;21082;-62
2023/08/21 00:12:38;;;;;;;8.80;6.95;;;;;;;25.15;56.16;100358.91;1744629;82;21048;-61
2023/08/21 00:15:09;;;;;;;8.13;6.97;;;;;;;25.12;56.04;100358.10;1743095;82;21503;-61
2023/08/21 00:17:38;;;;;;;9.18;6.75;;;;;;;25.11;55.95;100364.84;1742877;82;21039;-60
2023/08/21 00:20:09;;;;;;;9.45;7.00;;;;;;;25.10;55.91;100365.98;1742901;82;21483;-61
2023/08/21 00:22:38;;;;;;;8.15;6.95;;;;;;;25.10;55.93;100371.58;1742895;82;21023;-62
2023/08/21 00:25:08;;;;;;;9.83;7.25;;;;;;;25.09;55.89;100374.12;1742978;82;21549;-61
2023/08/21 00:27:36;;;;;;;9.18;7.58;;;;;;;25.07;55.97;100377.22;1720424;82;21047;-61
2023/08/21 00:30:07;;;;;;;11.10;7.90;;;;;;;25.07;56.05;100377.22;1742827;82;21000;-61
2023/08/21 00:32:37;;;;;;;10.43;7.42;;;;;;;25.07;56.15;100377.22;1743191;82;21079;-60
2023/08/21 00:35:06;;;;;;;11.90;7.78;;;;;;;25.07;56.24;100380.58;1742943;82;21003;-61
2023/08/21 00:37:35;;;;;;;8.08;7.28;;;;;;;25.07;56.30;100380.58;1742882;82;21063;-61
2023/08/21 00:40:05;;;;;;;9.83;7.40;;;;;;;25.06;56.41;100378.91;1743323;82;21031;-61
2023/08/21 00:42:34;;;;;;;9.53;7.25;;;;;;;25.05;56.60;100375.84;1744822;82;20999;-61
2023/08/21 00:45:03;;;;;;;8.75;6.95;;;;;;;25.05;56.65;100374.44;1742894;82;21447;-60
2023/08/21 00:47:34;;;;;;;9.48;7.75;;;;;;;25.03;56.75;100372.49;1743089;82;21072;-60
2023/08/21 00:50:03;;;;;;;10.48;7.42;;;;;;;25.03;56.86;100371.09;1742788;82;21055;-60
2023/08/21 00:52:33;;;;;;;9.10;7.25;;;;;;;25.03;57.01;100373.89;1742944;82;21475;-60
2023/08/21 00:55:02;;;;;;;8.00;7.20;;;;;;;25.02;57.26;100375.86;1742832;82;21027;-60
2023/08/21 00:57:33;;;;;;;8.95;7.65;;;;;;;25.01;57.38;100373.34;1743151;82;21285;-61
2023/08/21 01:00:01;;;;;;;8.50;7.65;;;;;;;24.99;57.50;100364.39;1742923;82;21063;-60
2023/08/21 01:02:31;;;;;;;10.45;7.85;;;;;;;24.97;57.57;100364.66;1742998;82;20999;-61
2023/08/21 01:05:01;;;;;;;9.98;7.62;;;;;;;24.98;57.74;100368.33;1743135;82;21358;-62
2023/08/21 01:07:32;;;;;;;9.33;7.65;;;;;;;24.95;57.83;100366.36;1742853;82;21039;-61
2023/08/21 01:10:11;;;;;;;9.95;7.42;;;;;;;24.94;57.86;100360.48;1743006;82;21267;-61
2023/08/21 01:12:55;;;;;;;8.95;7.30;;;;;;;24.94;57.94;100366.65;1742984;82;21032;-61
2023/08/21 01:15:23;;;;;;;7.90;7.05;;;;;;;24.91;58.01;100360.23;1751121;82;21117;-60
2023/08/21 01:17:52;;;;;;;9.93;7.30;;;;;;;24.88;58.00;100358.85;1751507;81;21058;-62
2023/08/21 01:20:20;;;;;;;8.08;7.28;;;;;;;24.88;58.00;100363.05;1751522;82;21027;-60
2023/08/21 01:22:51;;;;;;;9.13;7.20;;;;;;;24.87;58.03;100366.98;1751431;82;21082;-61
2023/08/21 01:25:19;;;;;;;10.35;7.15;;;;;;;24.85;58.15;100360.84;1751545;82;21011;-62
2023/08/21 01:27:57;;;;;;;10.05;7.33;;;;;;;24.84;58.17;100366.73;1751717;81;21007;-60
2023/08/21 01:30:27;;;;;;;10.70;7.95;;;;;;;24.82;58.21;100371.80;1751404;82;21105;-60
2023/08/21 01:33:05;;;;;;;9.53;7.25;;;;;;;24.80;58.27;100374.90;1746790;81;21552;-61
2023/08/21 01:35:35;;;;;;;8.98;6.95;;;;;;;24.78;58.38;100377.72;1749547;82;21067;-61
2023/08/21 01:38:05;;;;;;;10.25;7.40;;;;;;;24.76;58.47;100377.17;1746962;81;21517;-62
2023/08/21 01:40:34;;;;;;;9.28;7.20;;;;;;;24.75;58.49;100381.95;1751209;81;21086;-60
2023/08/21 01:43:02;;;;;;;7.87;7.03;;;;;;;24.74;58.52;100383.64;1751351;81;21046;-61
2023/08/21 01:45:30;;;;;;;9.40;7.35;;;;;;;24.72;58.65;100383.09;1751630;81;21050;-60
2023/08/21 01:47:59;;;;;;;9.88;7.40;;;;;;;24.69;58.78;100388.69;1751359;81;21070;-61
2023/08/21 01:50:28;;;;;;;8.83;7.55;;;;;;;24.66;58.85;100384.50;1751278;81;21013;-61
2023/08/21 01:52:57;;;;;;;9.40;7.62;;;;;;;24.66;58.91;100387.87;1746778;81;21081;-61
2023/08/21 01:55:27;;;;;;;7.80;7.08;;;;;;;24.65;59.01;100391.80;1751367;82;21475;-60
2023/08/21 01:57:56;;;;;;;12.50;8.13;;;;;;;24.62;59.06;100386.78;1751283;82;21093;-60
2023/08/21 02:00:26;;;;;;;8.65;7.55;;;;;;;24.59;59.23;100392.96;1751374;82;21132;-61
2023/08/21 02:02:55;;;;;;;9.50;7.65;;;;;;;24.58;59.43;100389.89;1751187;82;21466;-61
2023/08/21 02:05:24;;;;;;;8.63;7.72;;;;;;;24.57;59.49;100388.22;1751496;81;21018;-59
2023/08/21 02:07:53;;;;;;;9.85;7.83;;;;;;;24.55;59.55;100390.47;1751298;82;21015;-61
2023/08/21 02:10:22;;;;;;;11.05;7.92;;;;;;;24.50;59.68;100384.91;1751188;81;21070;-61
2023/08/21 02:12:51;;;;;;;8.93;7.72;;;;;;;24.47;59.88;100386.88;1751497;82;21066;-61
2023/08/21 02:15:21;;;;;;;11.35;7.50;;;;;;;24.43;60.04;100386.63;1720726;81;21018;-60
2023/08/21 02:17:50;;;;;;;10.80;7.72;;;;;;;24.43;60.12;100389.43;1714841;84;21043;-60
2023/08/21 02:20:19;;;;;;;8.75;7.40;;;;;;;24.44;60.21;100397.27;1715332;83;21479;-60
2023/08/21 02:22:48;;;;;;;12.60;8.13;;;;;;;24.44;60.25;100398.67;1715297;84;21078;-61
2023/08/21 02:25:17;;;;;;;9.53;7.97;;;;;;;24.39;60.39;100394.50;1715423;84;20986;-61
2023/08/21 02:27:45;;;;;;;9.15;8.25;;;;;;;24.37;60.47;100391.16;1715411;84;21062;-60
2023/08/21 02:30:16;;;;;;;9.60;8.43;;;;;;;24.34;60.65;100390.61;1715352;84;21273;-60
2023/08/21 02:32:44;;;;;;;8.68;7.80;;;;;;;24.33;60.75;100401.53;1715091;84;21066;-60
2023/08/21 02:35:15;;;;;;;12.20;7.70;;;;;;;24.32;60.86;100395.66;1715372;84;20995;-61
2023/08/21 02:37:44;;;;;;;12.45;7.78;;;;;;;24.32;61.07;100392.02;1685680;84;21031;-62
2023/08/21 02:40:12;;;;;;;12.18;7.90;;;;;;;24.32;61.12;100393.42;1715498;84;21038;-60
2023/08/21 02:42:43;;;;;;;10.63;7.78;;;;;;;24.31;61.12;100395.39;1715642;84;21434;-62
2023/08/21 02:45:11;;;;;;;10.05;8.15;;;;;;;24.30;61.16;100392.87;1715222;83;21101;-60
2023/08/21 02:47:41;;;;;;;10.55;8.13;;;;;;;24.26;61.26;100390.34;1715397;84;21447;-63
2023/08/21 02:50:11;;;;;;;12.13;7.95;;;;;;;24.25;61.33;100397.91;1715417;83;21506;-61
2023/08/21 02:52:40;;;;;;;8.85;7.97;;;;;;;24.22;61.39;100392.89;1715497;84;21011;-61
2023/08/21 02:55:10;;;;;;;11.38;8.65;;;;;;;24.24;61.40;100394.00;1715394;83;21054;-61
2023/08/21 02:57:38;;;;;;;9.38;8.43;;;;;;;24.22;61.44;100391.48;1709158;82;21030;-60
2023/08/21 03:00:08;;;;;;;11.43;8.53;;;;;;;24.22;61.46;100389.25;1715612;83;20994;-60
2023/08/21 03:02:38;;;;;;;10.28;8.35;;;;;;;24.20;61.57;100388.70;1715570;84;21019;-61
2023/08/21 03:05:09;;;;;;;12.47;8.30;;;;;;;24.17;61.74;100387.88;1715427;84;21014;-61
2023/08/21 03:07:37;;;;;;;14.05;8.90;;;;;;;24.12;61.94;100384.54;1709222;82;21443;-61
2023/08/21 03:10:07;;;;;;;11.45;8.25;;;;;;;24.09;62.12;100383.72;1715449;84;21030;-61
2023/08/21 03:12:36;;;;;;;15.85;9.00;;;;;;;24.07;62.24;100388.77;1715455;84;21006;-60
2023/08/21 03:15:07;;;;;;;11.50;8.90;;;;;;;24.07;62.25;100383.17;1731928;81;21082;-61
2023/08/21 03:17:35;;;;;;;12.18;8.20;;;;;;;24.08;62.21;100377.84;1742828;82;21044;-62
2023/08/21 03:20:06;;;;;;;11.22;8.65;;;;;;;24.08;62.28;100382.05;1742935;82;21019;-60
2023/08/21 03:22:35;;;;;;;10.50;8.73;;;;;;;24.04;62.44;100379.51;1744820;82;21023;-62
2023/08/21 03:25:06;;;;;;;11.00;8.30;;;;;;;24.01;62.69;100380.09;1742874;82;21098;-61
2023/08/21 03:27:39;;;;;;;10.53;8.35;;;;;;;23.98;62.90;100380.66;1743021;82;21039;-60
2023/08/21 03:30:08;;;;;;;12.65;8.73;;;;;;;23.95;63.03;100382.08;1743007;82;21077;-61
2023/08/21 03:32:38;;;;;;;10.72;8.05;;;;;;;23.94;63.11;100378.16;1743007;82;21075;-61
2023/08/21 03:35:08;;;;;;;11.97;8.88;;;;;;;23.94;63.15;100387.39;1742769;82;21067;-60
2023/08/21 03:37:37;;;;;;;13.85;8.40;;;;;;;23.96;63.19;100385.71;1742927;82;21460;-60
2023/08/21 03:40:08;;;;;;;11.83;8.78;;;;;;;23.96;63.21;100391.30;1743037;82;21039;-61
2023/08/21 03:42:37;;;;;;;10.70;8.58;;;;;;;23.97;63.26;100391.58;1742969;82;21043;-62
2023/08/21 03:45:08;;;;;;;12.07;9.43;;;;;;;23.97;63.33;100385.42;1720571;82;21039;-61
2023/08/21 03:47:37;;;;;;;13.30;8.68;;;;;;;23.97;63.40;100375.63;1743076;82;21059;-60
2023/08/21 03:50:08;;;;;;;12.35;8.43;;;;;;;23.99;63.51;100385.13;1742829;81;21028;-61
2023/08/21 03:52:38;;;;;;;12.15;8.93;;;;;;;23.97;63.67;100379.83;1742810;82;21046;-60
2023/08/21 03:55:08;;;;;;;13.32;9.25;;;;;;;23.98;63.80;100384.86;1742755;82;20992;-60
2023/08/21 03:57:36;;;;;;;11.45;8.25;;;;;;;23.99;64.07;100383.17;1742902;82;21067;-61
2023/08/21 04:00:07;;;;;;;12.43;8.85;;;;;;;24.01;64.24;100382.88;1742996;82;21012;-62
2023/08/21 04:02:38;;;;;;;12.23;8.38;;;;;;;24.00;64.25;100392.41;1742860;82;21043;-62
2023/08/21 04:05:07;;;;;;;12.65;9.30;;;;;;;24.01;64.28;100385.69;1743031;82;21020;-61
2023/08/21 04:07:37;;;;;;;10.58;9.05;;;;;;;24.02;64.32;100387.36;1742965;82;21058;-62
2023/08/21 04:10:07;;;;;;;12.65;8.70;;;;;;;24.03;64.25;100376.44;1743014;82;21499;-61
2023/08/21 04:12:36;;;;;;;18.27;9.95;;;;;;;24.04;64.22;100384.55;1744489;82;21019;-60
2023/08/21 04:15:07;;;;;;;12.55;8.73;;;;;;;24.07;64.35;100380.37;1742774;82;21083;-61
2023/08/21 04:17:37;;;;;;;11.08;8.75;;;;;;;24.12;64.33;100377.55;1742807;82;21439;-61
2023/08/21 04:20:08;;;;;;;11.05;8.28;;;;;;;24.17;64.10;100389.27;1743046;82;21055;-62
2023/08/21 04:22:37;;;;;;;10.98;9.08;;;;;;;24.21;64.02;100383.37;1742896;82;21102;-60
2023/08/21 04:25:06;;;;;;;14.60;8.83;;;;;;;24.23;63.87;100383.92;1742871;82;21027;-62
2023/08/21 04:27:35;;;;;;;10.78;8.70;;;;;;;24.26;63.85;100393.98;1742947;82;21490;-61
2023/08/21 04:30:06;;;;;;;10.40;8.85;;;;;;;24.27;63.82;100394.29;1743026;82;21070;-61
2023/08/21 04:32:35;;;;;;;9.98;8.30;;;;;;;24.29;63.70;100395.40;1742879;82;21475;-61
2023/08/21 04:35:08;;;;;;;11.28;9.05;;;;;;;24.32;63.55;100393.42;1742915;82;21031;-61
2023/08/21 04:37:40;;;;;;;14.60;8.40;;;;;;;24.33;63.34;100393.13;1742669;82;21071;-61
2023/08/21 04:40:11;;;;;;;11.60;8.33;;;;;;;24.34;63.32;100383.60;1744858;82;21063;-61
2023/08/21 04:42:39;;;;;;;12.15;8.50;;;;;;;24.38;63.27;100390.86;1742938;82;21071;-62
2023/08/21 04:45:10;;;;;;;12.70;8.88;;;;;;;24.42;63.40;100391.12;1742782;82;21467;-61
2023/08/21 04:47:39;;;;;;;11.12;8.80;;;;;;;24.46;63.27;100395.02;1742888;82;21127;-70
2023/08/21 04:50:08;;;;;;;13.70;8.68;;;;;;;24.49;63.15;100394.44;1742933;82;21050;-62
2023/08/21 04:52:37;;;;;;;15.63;9.68;;;;;;;24.53;63.02;100397.77;1742892;82;21071;-62
2023/08/21 04:55:07;;;;;;;11.40;8.68;;;;;;;24.55;62.99;100400.28;1743043;82;21015;-61
2023/08/21 04:57:36;;;;;;;11.53;8.38;;;;;;;24.56;62.91;100401.95;1743070;82;21047;-61
2023/08/21 05:00:09;;;;;;;11.50;8.95;;;;;;;24.58;62.83;100404.73;1742996;82;21078;-62
2023/08/21 05:02:40;;;;;;;13.15;8.90;;;;;;;24.61;62.74;100407.52;1742830;82;21007;-60
2023/08/21 05:05:09;;;;;;;9.93;8.83;;;;;;;24.63;62.71;100398.26;1742879;82;21055;-62
2023/08/21 05:07:38;;;;;;;12.45;8.73;;;;;;;24.68;62.67;100405.23;1743062;82;21073;-61
2023/08/21 05:10:08;;;;;;;10.45;8.60;;;;;;;24.72;62.64;100407.75;1742910;82;20992;-62
2023/08/21 05:12:38;;;;;;;15.13;8.65;;;;;;;24.75;62.55;100401.56;1744374;82;21460;-61
2023/08/21 05:15:09;;;;;;;13.75;8.80;;;;;;;24.79;62.41;100399.84;1745891;82;21631;-61
2023/08/21 05:17:38;;;;;;;12.25;9.30;;;;;;;24.80;62.37;100404.33;1751716;82;21058;-61
2023/08/21 05:20:10;;;;;;;12.18;8.45;;;;;;;24.85;62.41;100401.48;1746655;81;21485;-61
2023/08/21 05:22:39;;;;;;;14.53;9.00;;;;;;;24.88;62.34;100406.50;1751240;81;21007;-60
2023/08/21 05:25:12;;;;;;;13.70;9.43;;;;;;;24.93;62.20;100405.63;1751537;81;21070;-61
2023/08/21 05:27:40;;;;;;;13.78;9.90;;;;;;;24.97;62.13;100401.11;1746976;81;21116;-64
2023/08/21 05:30:12;;;;;;;13.98;9.43;;;;;;;25.02;62.07;100403.06;1751397;81;21455;-61
2023/08/21 05:32:41;;;;;;;20.48;10.63;;;;;;;25.06;62.13;100395.73;1751485;82;21090;-61
2023/08/21 05:35:11;;;;;;;12.13;9.20;;;;;;;25.10;61.96;100406.63;1751384;82;21058;-62
2023/08/21 05:37:39;;;;;;;14.23;9.45;;;;;;;25.12;61.95;100402.97;1751360;81;21027;-62
2023/08/21 05:40:10;;;;;;;13.70;9.10;;;;;;;25.16;61.90;100391.44;1751546;81;21070;-62
2023/08/21 05:42:39;;;;;;;11.10;8.68;;;;;;;25.21;61.79;100400.63;1746636;81;21074;-60
2023/08/21 05:45:10;;;;;;;15.05;9.08;;;;;;;25.26;61.66;100400.59;1751320;82;21486;-61
2023/08/21 05:47:38;;;;;;;12.40;9.10;;;;;;;25.28;61.62;100398.89;1751330;82;21027;-61
2023/08/21 05:50:09;;;;;;;13.50;8.90;;;;;;;25.30;61.66;100405.03;1751557;82;21010;-61
2023/08/21 05:52:39;;;;;;;11.83;9.13;;;;;;;25.35;61.73;100402.75;1751357;82;21047;-62
2023/08/21 05:55:11;;;;;;;10.43;9.05;;;;;;;25.39;61.61;100404.70;1722336;82;21046;-62
2023/08/21 05:57:39;;;;;;;15.55;9.45;;;;;;;25.44;61.42;100404.64;1751350;82;21465;-61
2023/08/21 06:00:10;;;;;;;12.25;9.38;;;;;;;25.50;61.27;100405.42;1751357;82;21019;-62
2023/08/21 06:02:46;;;;;;;12.75;9.40;;;;;;;25.57;61.20;100404.51;1751635;81;21019;-61
2023/08/21 06:05:17;;;;;;;13.93;9.13;;;;;;;25.67;61.05;100396.58;1750832;82;21051;-61
2023/08/21 06:07:46;;;;;;;13.98;9.20;;;;;;;25.77;60.77;100400.66;1746513;82;21556;-61
2023/08/21 06:10:15;;;;;;;13.80;9.58;;;;;;;25.87;60.60;100394.92;1751181;82;21011;-62
2023/08/21 06:12:44;;;;;;;15.85;10.00;;;;;;;25.98;60.35;100396.47;1751250;82;21039;-63
2023/08/21 06:15:14;;;;;;;13.18;9.18;;;;;;;26.10;59.91;100396.91;1748340;81;21082;-62
2023/08/21 06:17:44;;;;;;;15.45;9.08;;;;;;;26.24;59.57;100397.00;1747238;81;21548;-59
2023/08/21 06:20:13;;;;;;;14.00;8.98;;;;;;;26.38;59.13;100395.70;1751507;82;21125;-61
2023/08/21 06:22:42;;;;;;;13.95;9.15;;;;;;;26.49;58.96;100398.63;1751287;82;21019;-62
2023/08/21 06:25:13;;;;;;;13.10;9.60;;;;;;;26.60;58.63;100395.94;1751553;81;21500;-60
2023/08/21 06:27:42;;;;;;;19.32;11.70;;;;;;;26.73;58.20;100394.36;1751213;82;21078;-62
2023/08/21 06:30:16;;;;;;;12.35;9.68;;;;;;;26.85;57.93;100401.75;1748330;82;21034;-62
2023/08/21 06:32:45;;;;;;;10.80;8.68;;;;;;;26.96;57.30;100401.85;1751407;82;21035;-61
2023/08/21 06:35:16;;;;;;;10.15;8.90;;;;;;;27.05;56.83;100406.23;1751437;81;21086;-62
2023/08/21 06:37:45;;;;;;;12.15;8.58;;;;;;;27.11;56.81;100406.41;1751424;82;21025;-61
2023/08/21 06:40:15;;;;;;;13.30;8.73;;;;;;;27.19;56.72;100404.30;1751508;82;21043;-62
2023/08/21 06:42:44;;;;;;;13.32;9.40;;;;;;;27.32;56.51;100406.91;1751231;82;21130;-60
2023/08/21 06:45:13;;;;;;;14.98;8.43;;;;;;;27.45;55.97;100403.30;1751499;82;21151;-61
2023/08/21 06:47:43;;;;;;;13.32;9.03;;;;;;;27.59;55.49;100400.50;1751113;82;21050;-61
2023/08/21 06:50:12;;;;;;;19.67;10.48;;;;;;;27.80;55.11;100400.38;1751235;82;21440;-62
2023/08/21 06:52:46;;;;;;;15.75;8.98;;;;;;;28.09;54.52;100400.92;1751458;82;21074;-60
2023/08/21 06:55:16;;;;;;;11.95;9.08;;;;;;;28.40;53.64;100396.05;1746746;82;21023;-61
2023/08/21 06:57:45;;;;;;;16.27;9.18;;;;;;;28.69;52.61;100390.88;1751299;82;21447;-61
2023/08/21 07:00:15;;;;;;;9.18;8.10;;;;;;;28.97;51.95;100395.02;1751502;81;21062;-61
2023/08/21 07:02:43;;;;;;;10.95;7.25;;;;;;;29.22;51.21;100392.11;1751138;82;20999;-62
2023/08/21 07:05:13;;;;;;;9.43;7.12;;;;;;;29.46;49.88;100390.41;1751340;81;21078;-60
2023/08/21 07:07:42;;;;;;;11.30;7.92;;;;;;;29.66;49.37;100394.07;1751373;81;21078;-62
2023/08/21 07:10:11;;;;;;;9.55;7.60;;;;;;;29.90;48.82;100390.26;1751521;81;21051;-61
2023/08/21 07:12:40;;;;;;;10.32;8.13;;;;;;;30.20;47.46;100389.16;1751220;82;21466;-61
2023/08/21 07:15:10;;;;;;;12.60;8.10;;;;;;;30.39;47.37;100395.92;1751185;81;21525;-63
2023/08/21 07:17:39;;;;;;;10.55;8.38;;;;;;;30.63;46.73;100391.27;1722904;82;21058;-71
2023/08/21 07:20:10;;;;;;;12.73;8.00;;;;;;;30.91;46.22;100396.83;1753315;82;21027;-61
2023/08/21 07:22:39;;;;;;;14.50;8.10;;;;;;;31.26;45.55;100394.01;1753120;82;21026;-61
2023/08/21 07:25:09;;;;;;;9.33;8.08;;;;;;;31.52;44.70;100396.18;1753077;81;21510;-61
2023/08/21 07:27:39;;;;;;;10.60;7.37;;;;;;;31.74;43.85;100388.88;1753101;82;21046;-62
2023/08/21 07:30:09;;;;;;;11.70;7.22;;;;;;;31.88;43.66;100388.67;1753320;81;21058;-61
2023/08/21 07:32:38;;;;;;;19.00;8.13;;;;;;;32.05;43.25;100377.83;1753242;82;21035;-62
2023/08/21 07:35:08;;;;;;;25.30;8.55;;;;;;;32.21;42.66;100383.15;1753130;82;21086;-63
2023/08/21 07:37:37;;;;;;;11.63;7.50;;;;;;;32.39;41.63;100384.72;1753294;81;21074;-62
2023/08/21 07:40:08;;;;;;;18.32;7.62;;;;;;;32.50;41.71;100389.98;1753179;81;21483;-62
2023/08/21 07:42:38;;;;;;;14.95;7.75;;;;;;;32.69;41.28;100386.94;1746345;81;21497;-62
2023/08/21 07:45:08;;;;;;;19.07;8.25;;;;;;;32.87;40.95;100385.40;1752613;80;21092;-67
2023/08/21 07:47:36;;;;;;;8.08;6.92;;;;;;;33.04;40.22;100386.06;1752887;82;21060;-62
2023/08/21 07:50:09;;;;;;;10.23;6.70;;;;;;;33.09;40.02;100377.92;1753192;82;21044;-62
2023/08/21 07:52:39;;;;;;;15.60;6.72;;;;;;;33.15;39.85;100371.42;1753006;82;21045;-64
2023/08/21 07:55:09;;;;;;;11.28;6.90;;;;;;;33.22;39.73;100376.81;1753311;82;21009;-61
2023/08/21 07:57:38;;;;;;;10.60;6.17;;;;;;;33.38;39.52;100377.83;1753088;82;21036;-63
2023/08/21 08:00:10;;;;;;;8.78;6.45;;;;;;;33.54;38.89;100372.88;1753045;82;21020;-62
2023/08/21 08:02:43;;;;;;;11.30;6.45;;;;;;;33.64;38.75;100379.53;1753022;82;21491;-62
2023/08/21 08:05:12;;;;;;;7.97;6.40;;;;;;;33.80;38.50;100369.71;1753012;82;21079;-62
2023/08/21 08:07:42;;;;;;;9.90;5.90;;;;;;;33.90;38.07;100371.55;1721878;82;21084;-63
2023/08/21 08:10:11;;;;;;;8.80;6.03;;;;;;;33.99;37.96;100368.59;1752909;82;21053;-64
2023/08/21 08:12:44;;;;;;;11.60;6.95;;;;;;;34.08;37.63;100374.98;1752970;82;21106;-62
2023/08/21 08:15:14;;;;;;;9.23;6.67;;;;;;;34.07;37.63;100372.49;1752866;82;21116;-61
2023/08/21 08:17:45;;;;;;;9.78;6.25;;;;;;;34.04;37.56;100366.92;1750451;82;21057;-63
2023/08/21 08:20:14;;;;;;;8.93;6.08;;;;;;;33.84;37.59;100369.30;1742804;82;21041;-62
2023/08/21 08:22:44;;;;;;;7.60;6.03;;;;;;;33.62;37.76;100374.20;1742630;82;21073;-64
2023/08/21 08:25:14;;;;;;;9.60;6.17;;;;;;;33.48;38.36;100369.44;1742791;82;21028;-62
2023/08/21 08:27:43;;;;;;;10.03;6.58;;;;;;;33.61;38.16;100366.86;1742788;82;21077;-61
2023/08/21 08:30:14;;;;;;;10.70;7.03;;;;;;;33.72;37.95;100365.80;1720161;82;21048;-63
2023/08/21 08:32:46;;;;;;;9.20;6.20;;;;;;;33.91;37.82;100366.70;1742911;82;21541;-61
2023/08/21 08:35:17;;;;;;;7.78;6.10;;;;;;;34.12;37.34;100370.23;1720786;82;21022;-62
2023/08/21 08:37:46;;;;;;;9.60;6.78;;;;;;;34.24;36.78;100363.11;1742771;82;20978;-62
2023/08/21 08:40:16;;;;;;;9.98;6.35;;;;;;;34.10;36.97;100364.08;1742834;82;21021;-62
2023/08/21 08:42:45;;;;;;;11.15;6.72;;;;;;;33.86;37.24;100364.09;1742546;82;21103;-62
2023/08/21 08:45:15;;;;;;;10.05;6.33;;;;;;;33.52;37.81;100363.88;1742615;82;21445;-62
2023/08/21 08:47:44;;;;;;;9.00;6.28;;;;;;;33.32;37.98;100359.34;1742602;82;21068;-62
2023/08/21 08:50:14;;;;;;;8.78;6.28;;;;;;;33.24;38.26;100365.92;1742786;82;21029;-62
2023/08/21 08:52:43;;;;;;;9.45;6.70;;;;;;;33.07;38.23;100355.55;1742828;82;21034;-62
2023/08/21 08:55:13;;;;;;;11.35;6.50;;;;;;;32.95;38.50;100360.36;1720071;82;21778;-66
2023/08/21 08:57:44;;;;;;;10.20;6.78;;;;;;;32.82;38.71;100355.22;1742905;82;21053;-63
2023/08/21 09:00:16;;;;;;;9.35;7.00;;;;;;;32.71;39.08;100356.80;1742627;82;21092;-63
2023/08/21 09:02:45;;;;;;;12.13;6.85;;;;;;;32.66;39.44;100342.82;1742744;82;21009;-63
2023/08/21 09:05:15;;;;;;;12.00;6.97;;;;;;;32.63;39.02;100343.52;1742838;82;21475;-64
2023/08/21 09:07:45;;;;;;;10.35;6.53;;;;;;;32.53;38.55;100351.03;1742849;82;21099;-63
2023/08/21 09:10:15;;;;;;;9.48;6.70;;;;;;;32.40;38.77;100346.67;1742847;82;21076;-62
2023/08/21 09:12:48;;;;;;;7.28;6.58;;;;;;;32.34;39.01;100345.81;1742860;82;21068;-62
2023/08/21 09:15:17;;;;;;;10.53;6.47;;;;;;;32.22;38.72;100341.45;1742650;82;21077;-66
2023/08/21 09:17:52;;;;;;;8.35;5.92;;;;;;;32.11;39.70;100341.02;1742637;80;21179;-62
2023/08/21 09:20:22;;;;;;;6.87;6.15;;;;;;;32.03;39.78;100339.07;1742721;82;21073;-64
2023/08/21 09:22:58;;;;;;;6.75;5.75;;;;;;;32.02;39.54;100334.58;1742843;82;21100;-63
2023/08/21 09:25:28;;;;;;;7.25;6.03;;;;;;;32.03;39.06;100329.15;1742855;82;21061;-63
2023/08/21 09:28:07;;;;;;;6.90;5.85;;;;;;;32.05;39.36;100343.81;1658132;86;21119;-63
2023/08/21 09:30:51;;;;;;;7.00;6.30;;;;;;;32.12;39.10;100337.02;1658280;85;21113;-65
2023/08/21 09:33:24;;;;;;;11.85;6.05;;;;;;;32.05;38.96;100340.98;1658268;86;21084;-65
2023/08/21 09:35:54;;;;;;;9.83;6.15;;;;;;;32.01;39.42;100333.75;1665338;86;21095;-65
2023/08/21 09:38:26;;;;;;;10.23;6.65;;;;;;;32.04;39.61;100343.57;1658472;86;21084;-65
2023/08/21 09:40:55;;;;;;;9.90;6.10;;;;;;;31.98;39.78;100327.93;1658461;86;21088;-66
2023/08/21 09:43:25;;;;;;;8.80;6.78;;;;;;;31.91;40.01;100331.89;1658361;86;21095;-63
2023/08/21 09:45:55;;;;;;;7.65;6.55;;;;;;;31.79;40.13;100327.77;1693584;82;21072;-64
2023/08/21 09:48:28;;;;;;;11.93;7.65;;;;;;;31.67;40.48;100330.46;1742787;82;21045;-62
2023/08/21 09:50:56;;;;;;;10.98;7.12;;;;;;;31.52;40.96;100324.78;1743779;80;21045;-64
2023/08/21 09:53:27;;;;;;;10.65;6.53;;;;;;;31.42;41.18;100318.66;1752518;81;21030;-63
2023/08/21 09:55:57;;;;;;;9.38;6.58;;;;;;;31.37;41.39;100314.02;1745471;81;21073;-63
2023/08/21 09:58:27;;;;;;;7.97;6.80;;;;;;;31.37;41.46;100307.52;1746431;81;21045;-63
2023/08/21 10:00:59;;;;;;;9.10;6.75;;;;;;;31.41;41.44;100306.50;1758226;81;21022;-62
2023/08/21 10:03:29;;;;;;;12.03;6.87;;;;;;;31.48;41.68;100311.64;1673272;85;21114;-65
2023/08/21 10:05:59;;;;;;;8.25;6.95;;;;;;;31.57;41.45;100313.84;1671991;85;21538;-64
2023/08/21 10:08:28;;;;;;;9.75;6.65;;;;;;;31.64;41.15;100318.98;1658181;85;21098;-64
2023/08/21 10:10:59;;;;;;;8.73;7.20;;;;;;;31.65;40.96;100315.80;1682517;85;21055;-64
2023/08/21 10:13:30;;;;;;;11.63;7.17;;;;;;;31.63;40.97;100308.23;1640270;86;21522;-64
2023/08/21 10:15:59;;;;;;;15.80;7.08;;;;;;;31.57;41.07;100313.84;1657206;86;21179;-63
2023/08/21 10:18:33;;;;;;;13.08;6.42;;;;;;;31.48;40.69;100315.30;1614852;87;21523;-65
2023/08/21 10:21:17;;;;;;;19.62;6.62;;;;;;;31.36;40.36;100320.02;1625521;86;21163;-66
2023/08/21 10:23:50;;;;;;;40.65;11.12;;;;;;;31.15;40.53;100332.05;1656764;86;21645;-66
2023/08/21 10:26:21;;;;;;;39.98;12.63;;;;;;;30.99;44.30;100356.36;1602487;88;21643;-64
2023/08/21 10:28:53;;;;;;;24.25;13.30;;;;;;;30.24;55.72;100384.50;1697750;83;21060;-68
2023/08/21 10:31:39;;;;;;;26.85;15.35;;;;;;;28.90;61.84;100370.08;1685991;83;21136;-65
2023/08/21 10:34:10;;;;;;;17.37;13.70;;;;;;;27.88;67.22;100353.76;1715996;83;21029;-62
2023/08/21 10:36:48;;;;;;;23.92;15.83;;;;;;;27.11;72.52;100348.75;1687952;82;21056;-62
2023/08/21 10:39:20;;;;;;;30.43;19.02;;;;;;;26.54;76.09;100343.19;1752542;82;21106;-61
2023/08/21 10:42:13;;;;;;;30.05;21.40;;;;;;;26.11;80.37;100347.19;1752299;81;21026;-65
2023/08/21 10:44:51;;;;;;;28.05;21.87;;;;;;;25.88;84.53;100361.50;1752598;82;21065;-65
2023/08/21 10:47:34;;;;;;;35.65;23.87;;;;;;;25.73;88.17;100365.91;1752410;82;21575;-65
2023/08/21 10:50:07;;;;;;;29.20;24.85;;;;;;;25.61;90.48;100369.11;1752505;82;21178;-66
2023/08/21 10:52:47;;;;;;;29.40;25.35;;;;;;;25.59;93.08;100368.00;1752259;82;21078;-64
2023/08/21 10:55:18;;;;;;;28.30;24.55;;;;;;;25.58;95.11;100361.28;1752576;80;21066;-63
2023/08/21 10:57:48;;;;;;;31.20;23.73;;;;;;;25.57;96.12;100356.80;1752107;82;21042;-62
2023/08/21 11:00:20;;;;;;;30.55;25.82;;;;;;;25.52;96.29;100354.89;1717047;83;21042;-63
2023/08/21 11:02:52;;;;;;;34.53;30.15;;;;;;;25.53;97.41;100356.56;1717342;83;21125;-63
2023/08/21 11:05:21;;;;;;;32.93;27.58;;;;;;;25.62;99.58;100355.34;1717471;83;21093;-62
2023/08/21 11:07:50;;;;;;;33.85;28.65;;;;;;;25.75;100.00;100356.62;1717468;83;21040;-62
2023/08/21 11:10:24;;;;;;;39.33;30.40;;;;;;;25.83;100.00;100351.75;1717091;83;21569;-63
2023/08/21 11:12:56;;;;;;;30.55;26.48;;;;;;;25.95;100.00;100349.91;1708173;83;21038;-62
2023/08/21 11:15:27;;;;;;;27.90;25.02;;;;;;;25.99;100.00;100344.79;1717150;83;21422;-62
2023/08/21 11:18:02;;;;;;;27.80;24.47;;;;;;;25.97;99.58;100344.25;1717315;82;21377;-62
2023/08/21 11:20:35;;;;;;;29.18;26.02;;;;;;;25.95;99.16;100349.34;1761341;81;21078;-64
2023/08/21 11:23:09;;;;;;;28.60;25.70;;;;;;;25.97;99.36;100337.23;1761097;81;21466;-64
2023/08/21 11:25:40;;;;;;;30.05;24.47;;;;;;;26.05;100.00;100335.19;1761346;81;21022;-63
2023/08/21 11:28:09;;;;;;;26.30;23.60;;;;;;;26.12;100.00;100330.60;1728882;81;21494;-63
2023/08/21 11:30:38;;;;;;;30.27;25.45;;;;;;;26.15;99.88;100326.62;1761458;81;21058;-63
2023/08/21 11:33:12;;;;;;;27.45;24.65;;;;;;;26.17;98.38;100322.94;1761396;81;21061;-63